Time;durP1;ratioP1;P1;durP2;ratioP2;P2;SDS_P1;SDS_P2;PMS_P1;PMS_P2;Temp;Humidity;BMP_temperature;BMP_pressure;BME280_temperature;BME280_humidity;BME280_pressure;Samples;Min_cycle;Max_cycle;Signal;HPM_P1;HPM_P2
2021/05/23 00:00:43;;;;;;;5.22;3.33;;;;;;;12.46;100.00;97670.75;4995569;28;20034;-74
2021/05/23 00:03:12;;;;;;;10.57;3.40;;;;;;;12.40;100.00;97661.03;5013347;28;20613;-75
2021/05/23 00:05:39;;;;;;;11.20;5.05;;;;;;;12.43;100.00;97661.22;5013332;28;20045;-77
2021/05/23 00:08:26;;;;;;;6.95;3.33;;;;;;;12.38;100.00;97677.81;5013253;28;20090;-76
2021/05/23 00:10:53;;;;;;;;;;;;;;;12.46;100.00;97671.56;5013802;28;20414;-76
2021/05/23 00:13:20;;;;;;;;;;;;;;;12.40;100.00;97667.34;5013505;28;19924;-76
2021/05/23 00:15:50;;;;;;;12.32;4.68;;;;;;;12.30;100.00;97678.56;5013039;28;19914;-76
2021/05/23 00:18:16;;;;;;;8.45;4.10;;;;;;;12.32;100.00;97670.84;5012861;28;20054;-75
2021/05/23 00:20:42;;;;;;;5.70;3.45;;;;;;;12.32;100.00;97679.06;5013106;28;20021;-74
2021/05/23 00:23:10;;;;;;;4.75;3.38;;;;;;;12.26;100.00;97677.56;5013290;28;20505;-75
2021/05/23 00:25:36;;;;;;;5.03;3.10;;;;;;;12.20;100.00;97676.09;5013028;28;20062;-75
2021/05/23 00:28:01;;;;;;;7.40;3.75;;;;;;;12.22;100.00;97688.34;5012771;28;20125;-74
2021/05/23 00:30:27;;;;;;;8.07;3.28;;;;;;;12.24;100.00;97685.31;5012853;28;22100;-74
2021/05/23 00:32:52;;;;;;;5.97;3.80;;;;;;;12.26;100.00;97672.09;5012936;28;20025;-74
2021/05/23 00:35:19;;;;;;;6.93;4.78;;;;;;;12.24;100.00;97674.34;5012597;28;20034;-76
2021/05/23 00:37:45;;;;;;;7.35;4.05;;;;;;;12.15;100.00;97657.03;5012668;28;20025;-74
2021/05/23 00:40:11;;;;;;;5.15;3.40;;;;;;;12.22;100.00;97660.94;5012625;28;20474;-74
2021/05/23 00:42:38;;;;;;;7.35;4.05;;;;;;;12.11;100.00;97640.38;4994907;28;20128;-74
2021/05/23 00:45:05;;;;;;;10.60;4.80;;;;;;;12.11;100.00;97650.53;5012561;28;20112;-76
2021/05/23 00:47:30;;;;;;;7.40;5.03;;;;;;;12.12;100.00;97646.69;5012508;28;20017;-75
2021/05/23 00:49:56;;;;;;;5.35;4.03;;;;;;;12.10;100.00;97636.00;5012629;28;20034;-76
2021/05/23 00:52:22;;;;;;;8.20;3.42;;;;;;;12.12;100.00;97641.19;5012399;28;20091;-75
2021/05/23 00:54:47;;;;;;;14.27;3.80;;;;;;;12.16;100.00;97647.66;5012779;28;20036;-76
2021/05/23 00:57:14;;;;;;;5.07;3.58;;;;;;;12.13;100.00;97635.38;5012979;28;20126;-76
2021/05/23 00:59:39;;;;;;;3.45;2.42;;;;;;;12.05;100.00;97638.09;5012852;28;20026;-75
2021/05/23 01:02:07;;;;;;;6.45;3.30;;;;;;;12.11;100.00;97639.56;5012552;28;20030;-75
2021/05/23 01:04:34;;;;;;;5.53;2.67;;;;;;;12.17;100.00;97635.56;5016068;28;20042;-75
2021/05/23 01:07:00;;;;;;;2.90;2.40;;;;;;;12.18;100.00;97649.00;5017817;28;20395;-76
2021/05/23 01:09:26;;;;;;;4.00;2.80;;;;;;;12.30;100.00;97646.47;5016488;28;20026;-76
2021/05/23 01:11:51;;;;;;;5.65;3.13;;;;;;;12.29;100.00;97644.03;5013722;28;20037;-77
2021/05/23 01:14:47;;;;;;;4.80;2.53;;;;;;;12.37;100.00;97640.53;5011659;28;20610;-75
2021/05/23 01:17:14;;;;;;;4.60;3.20;;;;;;;12.34;100.00;97635.69;5011604;28;20069;-76
2021/05/23 01:19:53;;;;;;;8.05;3.10;;;;;;;12.28;100.00;97636.91;5011319;28;20034;-75
2021/05/23 01:22:51;;;;;;;4.43;3.40;;;;;;;12.30;100.00;97631.94;5011852;28;20495;-76
2021/05/23 01:25:19;;;;;;;4.75;3.42;;;;;;;12.38;100.00;97647.63;5011589;28;20129;-75
2021/05/23 01:27:50;;;;;;;5.05;3.33;;;;;;;12.34;100.00;97643.91;5011797;28;20065;-75
2021/05/23 01:30:26;;;;;;;5.95;3.55;;;;;;;12.49;100.00;97638.03;5011421;28;20037;-76
2021/05/23 01:32:56;;;;;;;5.43;2.73;;;;;;;12.46;100.00;97626.88;4993997;28;20029;-75
2021/05/23 01:35:25;;;;;;;5.18;3.28;;;;;;;12.41;100.00;97630.53;5011354;28;20030;-75
2021/05/23 01:37:59;;;;;;;5.22;3.67;;;;;;;12.41;100.00;97622.31;5011449;28;20120;-77
2021/05/23 01:40:26;;;;;;;6.70;3.58;;;;;;;12.48;100.00;97628.16;5011463;28;20034;-75
2021/05/23 01:42:51;;;;;;;6.10;3.25;;;;;;;12.36;100.00;97625.22;5011460;28;20483;-75
2021/05/23 01:45:17;;;;;;;6.97;3.08;;;;;;;12.36;100.00;97619.72;5011247;28;20053;-75
2021/05/23 01:47:44;;;;;;;6.00;3.63;;;;;;;12.29;100.00;97616.59;5011490;28;20490;-75
2021/05/23 01:50:10;;;;;;;6.68;2.90;;;;;;;12.29;100.00;97613.88;5011327;28;20029;-75
2021/05/23 01:52:35;;;;;;;4.40;3.28;;;;;;;12.39;100.00;97626.50;5011474;28;20048;-75
2021/05/23 01:55:02;;;;;;;4.00;3.45;;;;;;;12.30;100.00;97641.00;5011372;28;20025;-77
2021/05/23 01:57:29;;;;;;;4.97;2.97;;;;;;;12.22;100.00;97629.94;5010899;28;20540;-75
2021/05/23 01:59:54;;;;;;;5.82;3.15;;;;;;;12.25;100.00;97608.19;5011255;28;20394;-75
2021/05/23 02:02:19;;;;;;;5.55;3.03;;;;;;;12.17;100.00;97602.69;5010958;28;20040;-76
2021/05/23 02:04:45;;;;;;;4.40;2.67;;;;;;;12.28;100.00;97609.50;5010866;28;20044;-76
2021/05/23 02:07:11;;;;;;;6.82;3.30;;;;;;;12.28;100.00;97607.56;5010746;28;20064;-75
2021/05/23 02:09:36;;;;;;;6.30;2.97;;;;;;;12.38;100.00;97611.97;5010791;28;20032;-75
2021/05/23 02:12:02;;;;;;;4.18;2.85;;;;;;;12.31;100.00;97612.41;5010787;28;20034;-75
2021/05/23 02:14:27;;;;;;;6.97;3.47;;;;;;;12.43;100.00;97611.84;4992875;28;20029;-75
2021/05/23 02:16:56;;;;;;;4.95;3.30;;;;;;;12.42;100.00;97615.72;4993139;28;20088;-75
2021/05/23 02:19:22;;;;;;;3.92;3.20;;;;;;;12.41;100.00;97605.84;5010692;28;20030;-75
2021/05/23 02:21:49;;;;;;;4.50;3.38;;;;;;;12.46;100.00;97615.91;5010496;28;20109;-75
2021/05/23 02:24:15;;;;;;;3.50;2.83;;;;;;;12.40;100.00;97612.50;4993227;28;20084;-74
2021/05/23 02:26:42;;;;;;;5.18;2.90;;;;;;;12.28;100.00;97602.09;5010732;28;20037;-75
2021/05/23 02:29:07;;;;;;;6.88;2.95;;;;;;;12.19;100.00;97594.94;5010821;28;20029;-75
2021/05/23 02:31:32;;;;;;;6.03;3.15;;;;;;;12.16;100.00;97585.41;5010330;28;20084;-75
2021/05/23 02:33:58;;;;;;;6.82;3.03;;;;;;;12.15;100.00;97596.72;5010432;28;20037;-75
2021/05/23 02:36:23;;;;;;;3.90;3.40;;;;;;;12.12;100.00;97600.06;5010607;28;20033;-75
2021/05/23 02:38:49;;;;;;;6.80;4.00;;;;;;;12.12;100.00;97602.81;5010647;28;20030;-76
2021/05/23 02:41:15;;;;;;;8.70;3.25;;;;;;;12.08;100.00;97594.41;5010769;28;20026;-75
2021/05/23 02:43:40;;;;;;;4.60;2.83;;;;;;;12.24;100.00;97601.13;5010461;28;20056;-74
2021/05/23 02:46:06;;;;;;;5.88;2.75;;;;;;;12.20;100.00;97618.50;4992431;28;20097;-75
2021/05/23 02:48:31;;;;;;;5.60;3.75;;;;;;;12.21;100.00;97647.53;5010400;28;20052;-75
2021/05/23 02:50:58;;;;;;;7.53;4.20;;;;;;;12.02;100.00;97633.22;5010601;28;20052;-77
2021/05/23 02:53:23;;;;;;;4.60;4.20;;;;;;;11.96;100.00;97596.91;5010891;28;20064;-75
2021/05/23 02:55:50;;;;;;;7.30;3.45;;;;;;;11.97;100.00;97597.69;4993062;28;20061;-75
2021/05/23 02:58:16;;;;;;;3.80;3.28;;;;;;;11.81;100.00;97606.31;5010599;28;20030;-76
2021/05/23 03:00:42;;;;;;;4.97;3.33;;;;;;;11.85;100.00;97608.44;5010355;28;20029;-75
2021/05/23 03:03:09;;;;;;;5.85;3.53;;;;;;;11.76;100.00;97590.00;5010146;28;20700;-74
2021/05/23 03:05:34;;;;;;;4.55;3.20;;;;;;;11.86;100.00;97607.31;5009984;28;20026;-74
2021/05/23 03:08:00;;;;;;;6.00;2.92;;;;;;;11.93;100.00;97602.22;5010207;28;20022;-74
2021/05/23 03:10:34;;;;;;;4.90;4.07;;;;;;;12.04;100.00;97611.78;5010340;28;20034;-74
2021/05/23 03:13:00;;;;;;;4.65;2.72;;;;;;;11.98;100.00;97610.28;5010283;28;20468;-75
2021/05/23 03:15:28;;;;;;;4.10;3.38;;;;;;;12.08;100.00;97621.00;5010183;28;20037;-77
2021/05/23 03:17:55;;;;;;;4.18;3.15;;;;;;;12.04;100.00;97620.00;5010141;28;20022;-76
2021/05/23 03:20:21;;;;;;;4.50;2.90;;;;;;;11.99;100.00;97617.41;5010345;28;20030;-75
2021/05/23 03:22:50;;;;;;;5.22;3.15;;;;;;;11.92;100.00;97617.84;5010026;28;20025;-75
2021/05/23 03:25:16;;;;;;;5.38;3.53;;;;;;;11.77;100.00;97632.75;5010449;28;20029;-75
2021/05/23 03:27:42;;;;;;;5.65;2.85;;;;;;;11.82;100.00;97627.13;5010034;28;20045;-75
2021/05/23 03:30:11;;;;;;;7.40;3.25;;;;;;;11.73;100.00;97607.06;4992305;28;20382;-76
2021/05/23 03:32:36;;;;;;;5.22;2.97;;;;;;;11.83;100.00;97622.47;5010110;28;20037;-76
2021/05/23 03:35:03;;;;;;;4.65;3.08;;;;;;;11.89;100.00;97609.44;5012664;28;20037;-76
2021/05/23 03:37:29;;;;;;;3.45;3.00;;;;;;;11.91;100.00;97618.13;5013687;28;20105;-76
2021/05/23 03:39:54;;;;;;;4.97;2.75;;;;;;;11.81;100.00;97617.28;5013716;28;20026;-75
2021/05/23 03:42:19;;;;;;;3.90;3.05;;;;;;;11.77;100.00;97626.44;5013371;28;20030;-76
2021/05/23 03:44:45;;;;;;;3.50;3.03;;;;;;;11.68;100.00;97631.81;5013423;28;20034;-74
2021/05/23 03:47:10;;;;;;;3.85;3.30;;;;;;;11.71;100.00;97633.97;5013503;28;20049;-75
2021/05/23 03:49:38;;;;;;;5.35;3.67;;;;;;;11.82;100.00;97609.88;5013345;28;20112;-75
2021/05/23 03:52:12;;;;;;;5.32;3.75;;;;;;;11.83;100.00;97606.00;5013314;28;20117;-75
2021/05/23 03:54:39;;;;;;;6.20;3.45;;;;;;;11.84;100.00;97615.06;5013771;28;20040;-75
2021/05/23 03:57:05;;;;;;;5.60;3.50;;;;;;;11.79;100.00;97632.41;5013103;28;20030;-75
2021/05/23 03:59:32;;;;;;;3.08;2.78;;;;;;;11.80;100.00;97626.63;5013087;28;20638;-75
2021/05/23 04:01:58;;;;;;;3.90;2.85;;;;;;;11.86;100.00;97635.53;5013237;28;20022;-75
2021/05/23 04:04:24;;;;;;;3.25;2.90;;;;;;;11.87;100.00;97628.13;4995469;28;20041;-75
2021/05/23 04:06:49;;;;;;;4.82;2.38;;;;;;;11.94;100.00;97625.75;5012905;28;20033;-74
2021/05/23 04:09:20;;;;;;;5.80;2.47;;;;;;;11.91;100.00;97626.38;5013136;28;20112;-75
2021/05/23 04:11:49;;;;;;;3.15;2.42;;;;;;;11.87;100.00;97636.34;5012946;28;20029;-75
2021/05/23 04:14:15;;;;;;;3.17;2.47;;;;;;;12.01;100.00;97639.81;5012882;28;20098;-74
2021/05/23 04:16:41;;;;;;;3.30;2.58;;;;;;;12.03;100.00;97632.13;5013036;28;20056;-75
2021/05/23 04:19:06;;;;;;;3.83;2.60;;;;;;;11.95;100.00;97630.09;4995525;28;20033;-75
2021/05/23 04:21:31;;;;;;;3.47;2.40;;;;;;;12.02;100.00;97619.53;4993533;28;20038;-75
2021/05/23 04:23:57;;;;;;;7.50;3.10;;;;;;;12.01;100.00;97609.66;4993804;28;20031;-75
2021/05/23 04:26:22;;;;;;;4.15;2.13;;;;;;;12.01;100.00;97615.97;4993508;28;20498;-75
2021/05/23 04:28:48;;;;;;;6.72;3.10;;;;;;;12.03;100.00;97618.41;4993367;28;20085;-75
2021/05/23 04:31:13;;;;;;;2.92;2.35;;;;;;;12.00;100.00;97614.34;4993291;28;20022;-75
2021/05/23 04:33:39;;;;;;;2.90;2.60;;;;;;;12.08;100.00;97612.78;4992964;28;20064;-75
2021/05/23 04:36:04;;;;;;;4.22;2.85;;;;;;;12.14;100.00;97608.78;4993381;28;20060;-74
2021/05/23 04:38:30;;;;;;;3.63;2.50;;;;;;;12.12;100.00;97605.56;4993137;28;20061;-75
2021/05/23 04:40:55;;;;;;;3.63;2.42;;;;;;;12.22;100.00;97610.75;4993420;28;20031;-76
2021/05/23 04:43:21;;;;;;;5.53;2.45;;;;;;;12.15;100.00;97607.66;4993371;28;20479;-76
2021/05/23 04:45:46;;;;;;;4.47;3.38;;;;;;;12.11;100.00;97601.19;4992340;28;20022;-75
2021/05/23 04:48:12;;;;;;;2.60;2.17;;;;;;;12.05;100.00;97605.19;4992795;28;20033;-75
2021/05/23 04:50:37;;;;;;;1.98;1.77;;;;;;;12.15;100.00;97622.16;4992644;28;20038;-76
2021/05/23 04:53:05;;;;;;;2.75;2.55;;;;;;;12.18;100.00;97620.75;4992982;28;20077;-75
2021/05/23 04:55:30;;;;;;;10.80;8.70;;;;;;;12.25;100.00;97624.66;5011053;28;20037;-75
2021/05/23 04:57:57;;;;;;;7.50;3.80;;;;;;;12.29;100.00;97630.31;4994790;28;20030;-76
2021/05/23 05:00:22;;;;;;;3.72;2.25;;;;;;;12.23;100.00;97635.13;5012389;28;20026;-76
2021/05/23 05:02:49;;;;;;;3.28;2.10;;;;;;;12.20;100.00;97638.50;5012152;28;20482;-75
2021/05/23 05:05:14;;;;;;;3.63;3.20;;;;;;;12.14;100.00;97619.75;5012246;28;20398;-74
2021/05/23 05:07:41;;;;;;;10.52;5.00;;;;;;;12.31;100.00;97625.31;5012219;28;20030;-76
2021/05/23 05:10:09;;;;;;;30.65;17.77;;;;;;;12.37;100.00;97613.13;5011947;28;20056;-76
2021/05/23 05:12:36;;;;;;;8.15;5.38;;;;;;;12.23;100.00;97604.16;5011985;28;20029;-75
2021/05/23 05:15:02;;;;;;;8.98;2.30;;;;;;;12.27;100.00;97610.63;4994404;28;20041;-75
2021/05/23 05:17:28;;;;;;;9.73;4.40;;;;;;;12.01;100.00;97610.47;5011977;28;20056;-73
2021/05/23 05:19:53;;;;;;;15.10;10.68;;;;;;;12.08;100.00;97599.06;5011919;28;20061;-75
2021/05/23 05:22:19;;;;;;;3.58;2.45;;;;;;;12.07;100.00;97601.00;5011789;28;20033;-74
2021/05/23 05:24:44;;;;;;;3.38;2.10;;;;;;;12.19;100.00;97612.19;5012387;28;20057;-76
2021/05/23 05:27:09;;;;;;;5.30;2.60;;;;;;;12.10;100.00;97614.09;5011993;28;20041;-74
2021/05/23 05:29:35;;;;;;;3.88;2.90;;;;;;;12.26;100.00;97620.78;5011731;28;20017;-75
2021/05/23 05:32:02;;;;;;;3.28;1.80;;;;;;;12.30;100.00;97621.78;5011902;28;20080;-74
2021/05/23 05:34:30;;;;;;;4.95;3.03;;;;;;;12.16;100.00;97603.78;4990520;28;20690;-76
2021/05/23 05:36:56;;;;;;;3.95;2.30;;;;;;;12.21;100.00;97626.44;4974855;28;20376;-75
2021/05/23 05:39:21;;;;;;;4.40;2.05;;;;;;;12.20;100.00;97618.50;4991991;28;20041;-75
2021/05/23 05:41:46;;;;;;;2.97;2.15;;;;;;;12.39;100.00;97619.09;4992277;28;20046;-75
2021/05/23 05:44:12;;;;;;;4.70;2.45;;;;;;;12.37;100.00;97624.09;4992457;28;20435;-75
2021/05/23 05:46:37;;;;;;;6.40;2.55;;;;;;;12.45;100.00;97626.06;4974905;28;20061;-74
2021/05/23 05:49:03;;;;;;;5.65;2.40;;;;;;;12.61;100.00;97630.00;4992366;28;20030;-76
2021/05/23 05:51:28;;;;;;;4.32;2.28;;;;;;;12.62;100.00;97637.13;4992295;28;20026;-73
2021/05/23 05:53:54;;;;;;;4.38;2.35;;;;;;;12.51;100.00;97641.25;4991890;28;20050;-74
2021/05/23 05:56:19;;;;;;;4.50;2.58;;;;;;;12.51;100.00;97634.94;4991790;28;20031;-75
2021/05/23 05:58:44;;;;;;;5.63;1.88;;;;;;;12.63;100.00;97644.22;4991703;28;20069;-74
2021/05/23 06:01:10;;;;;;;2.30;1.75;;;;;;;12.67;100.00;97647.94;4974520;28;20034;-75
2021/05/23 06:03:36;;;;;;;2.78;1.95;;;;;;;12.72;100.00;97644.25;5007223;28;20052;-74
2021/05/23 06:06:01;;;;;;;4.60;2.08;;;;;;;12.71;100.00;97646.19;5033252;28;20130;-73
2021/05/23 06:08:26;;;;;;;4.22;2.13;;;;;;;12.74;100.00;97633.78;5035330;28;20769;-75
2021/05/23 06:10:52;;;;;;;3.83;1.98;;;;;;;12.79;100.00;97630.88;5022120;28;20040;-74
2021/05/23 06:13:18;;;;;;;3.13;1.83;;;;;;;12.78;100.00;97641.03;5003118;28;20034;-77
2021/05/23 06:15:43;;;;;;;4.45;2.65;;;;;;;12.70;100.00;97633.59;5015863;28;21607;-74
2021/05/23 06:18:09;;;;;;;3.80;2.33;;;;;;;12.65;100.00;97635.69;5019780;28;20025;-75
2021/05/23 06:20:34;;;;;;;4.72;1.92;;;;;;;12.78;100.00;97619.09;5020220;28;20105;-74
2021/05/23 06:23:00;;;;;;;1.83;1.63;;;;;;;13.04;100.00;97629.34;4999978;28;20018;-75
2021/05/23 06:25:25;;;;;;;5.47;2.35;;;;;;;12.98;100.00;97627.88;5019464;28;20414;-75
2021/05/23 06:27:51;;;;;;;3.47;2.20;;;;;;;12.97;100.00;97610.59;5017938;28;20021;-75
2021/05/23 06:30:17;;;;;;;3.67;2.20;;;;;;;12.80;100.00;97591.34;5015565;28;20105;-76
2021/05/23 06:32:44;;;;;;;3.92;2.35;;;;;;;12.95;100.00;97601.06;5015449;28;20033;-74
2021/05/23 06:35:10;;;;;;;2.53;2.30;;;;;;;13.06;100.00;97592.19;5019207;28;20156;-76
2021/05/23 06:37:36;;;;;;;2.05;1.63;;;;;;;13.12;100.00;97598.38;5000535;28;20029;-75
2021/05/23 06:40:01;;;;;;;3.03;2.00;;;;;;;13.32;100.00;97612.31;5019550;28;20021;-74
2021/05/23 06:42:28;;;;;;;3.38;2.20;;;;;;;13.18;100.00;97611.66;4969604;28;20033;-76
2021/05/23 06:44:53;;;;;;;2.90;1.67;;;;;;;13.25;100.00;97611.19;5003216;28;20061;-75
2021/05/23 06:47:19;;;;;;;3.28;2.08;;;;;;;13.41;100.00;97612.31;5017916;28;20148;-75
2021/05/23 06:49:44;;;;;;;4.45;2.22;;;;;;;13.28;100.00;97611.31;5019824;28;20386;-75
2021/05/23 06:52:09;;;;;;;1.60;1.50;;;;;;;13.54;100.00;97614.09;5018076;28;20065;-76
2021/05/23 06:54:35;;;;;;;1.90;1.70;;;;;;;13.71;99.28;97597.63;5011073;28;20026;-75
2021/05/23 06:57:00;;;;;;;2.75;2.42;;;;;;;13.84;98.72;97596.66;5017072;28;20026;-75
2021/05/23 06:59:26;;;;;;;3.60;2.35;;;;;;;13.60;99.48;97585.31;5025228;28;20021;-76
2021/05/23 07:01:51;;;;;;;3.72;2.70;;;;;;;13.94;98.55;97589.97;4995263;28;20084;-77
2021/05/23 07:04:17;;;;;;;3.33;2.20;;;;;;;14.20;95.23;97595.44;5011735;28;20468;-76
2021/05/23 07:06:46;;;;;;;2.53;2.17;;;;;;;13.97;94.49;97588.53;4992615;28;20138;-75
2021/05/23 07:09:11;;;;;;;4.40;2.70;;;;;;;14.02;95.66;97582.84;4994279;28;20022;-75
2021/05/23 07:11:37;;;;;;;3.28;2.45;;;;;;;14.36;96.28;97602.06;4996507;28;20042;-76
2021/05/23 07:14:02;;;;;;;2.97;2.38;;;;;;;14.29;94.82;97597.03;5018465;28;20375;-75
2021/05/23 07:16:28;;;;;;;5.38;3.20;;;;;;;14.20;93.88;97587.19;5014405;28;20076;-76
2021/05/23 07:18:53;;;;;;;2.28;2.08;;;;;;;14.06;94.92;97597.56;5017606;28;20449;-75
2021/05/23 07:21:19;;;;;;;2.55;2.00;;;;;;;13.88;95.48;97591.28;5020508;28;20080;-74
2021/05/23 07:23:44;;;;;;;2.78;1.88;;;;;;;13.89;94.82;97587.41;5021217;28;20049;-74
2021/05/23 07:26:10;;;;;;;4.22;2.20;;;;;;;13.80;94.67;97584.66;5019089;28;20032;-75
2021/05/23 07:28:37;;;;;;;2.85;2.15;;;;;;;14.02;96.87;97597.41;5019181;28;20147;-75
2021/05/23 07:31:03;;;;;;;3.05;1.90;;;;;;;14.11;95.12;97592.69;5003461;28;20470;-78
2021/05/23 07:33:28;;;;;;;4.30;2.20;;;;;;;14.16;94.31;97591.75;5002766;28;20029;-79
2021/05/23 07:35:53;;;;;;;4.50;1.83;;;;;;;14.55;93.89;97593.41;4999799;28;20034;-75
2021/05/23 07:38:19;;;;;;;3.58;2.35;;;;;;;15.09;93.99;97588.94;5022653;28;20075;-76
2021/05/23 07:40:46;;;;;;;2.17;1.98;;;;;;;15.39;91.98;97591.31;5020208;28;20029;-76
2021/05/23 07:43:12;;;;;;;2.00;1.70;;;;;;;15.30;90.04;97589.75;4998636;28;20033;-75
2021/05/23 07:45:37;;;;;;;5.15;2.35;;;;;;;14.81;93.48;97603.19;5013374;28;20478;-75
2021/05/23 07:48:03;;;;;;;2.22;1.88;;;;;;;14.72;93.52;97588.63;4995420;28;20026;-76
2021/05/23 07:50:28;;;;;;;8.75;3.20;;;;;;;15.08;92.68;97590.06;5013300;28;20596;-76
2021/05/23 07:52:54;;;;;;;4.07;2.70;;;;;;;15.70;88.86;97592.88;5012844;28;20112;-76
2021/05/23 07:55:21;;;;;;;4.18;2.70;;;;;;;15.94;88.70;97591.03;5013412;28;20100;-75
2021/05/23 07:57:46;;;;;;;3.85;2.47;;;;;;;15.67;88.86;97583.34;5012671;28;20479;-76
2021/05/23 08:00:22;;;;;;;2.92;2.33;;;;;;;16.04;88.67;97579.59;4995439;28;20071;-76
2021/05/23 08:02:47;;;;;;;3.33;2.10;;;;;;;15.41;88.89;97585.47;5012734;28;20403;-76
2021/05/23 08:05:12;;;;;;;3.08;2.50;;;;;;;15.40;89.93;97592.13;5012490;28;20030;-76
2021/05/23 08:07:38;;;;;;;4.68;2.65;;;;;;;16.11;87.39;97587.31;4995560;28;20022;-77
2021/05/23 08:10:07;;;;;;;3.25;2.65;;;;;;;16.36;85.54;97596.47;5012856;28;20037;-75
2021/05/23 08:12:33;;;;;;;3.13;2.75;;;;;;;15.95;86.01;97583.56;5021311;28;20025;-74
2021/05/23 08:15:00;;;;;;;3.80;2.90;;;;;;;16.70;84.23;97596.09;5020326;28;20519;-74
2021/05/23 08:17:26;;;;;;;8.00;3.38;;;;;;;16.44;83.99;97570.72;5014245;28;20059;-76
2021/05/23 08:19:51;;;;;;;4.40;2.55;;;;;;;16.90;80.57;97578.63;5003680;28;20030;-75
2021/05/23 08:22:17;;;;;;;4.28;3.00;;;;;;;18.20;77.19;97576.22;5020105;28;20033;-75
2021/05/23 08:24:42;;;;;;;7.53;2.70;;;;;;;19.62;73.83;97597.22;5022153;28;20029;-75
2021/05/23 08:27:07;;;;;;;6.03;2.60;;;;;;;19.82;70.15;97583.34;5021383;28;20026;-76
2021/05/23 08:29:33;;;;;;;4.40;2.28;;;;;;;18.63;75.62;97569.06;5021953;28;20396;-76
2021/05/23 08:32:00;;;;;;;4.90;2.65;;;;;;;18.49;77.10;97585.28;5022402;28;20048;-76
2021/05/23 08:34:27;;;;;;;6.10;2.33;;;;;;;18.59;77.08;97593.91;5021280;28;20509;-74
2021/05/23 08:36:52;;;;;;;6.07;2.38;;;;;;;18.17;76.60;97604.59;5019964;28;20029;-76
2021/05/23 08:39:17;;;;;;;3.88;2.35;;;;;;;17.60;79.58;97590.31;5021262;28;20757;-75
2021/05/23 08:41:47;;;;;;;5.00;2.00;;;;;;;17.59;81.49;97602.53;5020984;28;20030;-74
2021/05/23 08:44:22;;;;;;;3.28;2.00;;;;;;;17.38;82.13;97594.34;5019444;28;20032;-76
2021/05/23 08:46:50;;;;;;;5.72;2.72;;;;;;;17.66;82.04;97591.66;5021376;28;20026;-76
2021/05/23 08:49:18;;;;;;;6.93;2.85;;;;;;;18.11;79.96;97586.63;5001939;28;20033;-75
2021/05/23 08:51:45;;;;;;;3.95;2.42;;;;;;;18.91;76.26;97605.81;5013517;28;20033;-75
2021/05/23 08:54:12;;;;;;;3.47;1.85;;;;;;;19.27;74.20;97601.91;5011855;28;20387;-76
2021/05/23 08:56:37;;;;;;;3.22;2.25;;;;;;;18.84;75.55;97596.50;5012291;28;20030;-75
2021/05/23 08:59:03;;;;;;;2.83;2.05;;;;;;;18.61;75.89;97597.13;5012116;28;20026;-75
2021/05/23 09:01:29;;;;;;;5.82;2.40;;;;;;;18.49;76.73;97599.13;5011999;28;20034;-75
2021/05/23 09:03:59;;;;;;;6.72;3.00;;;;;;;18.47;78.64;97584.84;4994297;28;20099;-76
2021/05/23 09:06:35;;;;;;;5.93;2.70;;;;;;;19.75;74.70;97572.91;4994701;28;20025;-75
2021/05/23 09:09:04;;;;;;;5.45;2.22;;;;;;;19.68;72.65;97586.63;5012103;28;20032;-74
2021/05/23 09:11:30;;;;;;;2.92;2.58;;;;;;;18.19;79.13;97576.59;4993342;28;20022;-75
2021/05/23 09:13:56;;;;;;;7.70;4.00;;;;;;;18.22;79.60;97581.41;5032021;28;20060;-76
2021/05/23 09:16:22;;;;;;;6.45;3.05;;;;;;;18.31;82.99;97595.09;5032169;28;20048;-75
2021/05/23 09:18:47;;;;;;;5.68;2.53;;;;;;;18.51;80.93;97619.81;5013599;28;20025;-76
2021/05/23 09:21:16;;;;;;;2.80;1.98;;;;;;;17.82;82.89;97609.16;5031257;28;20033;-75
2021/05/23 09:23:48;;;;;;;5.88;2.30;;;;;;;18.03;83.59;97607.00;5013614;28;20489;-75
2021/05/23 09:26:18;;;;;;;6.32;3.10;;;;;;;18.68;82.91;97618.66;5031802;28;20029;-75
2021/05/23 09:28:43;;;;;;;2.95;2.10;;;;;;;19.38;79.70;97613.28;5031068;28;20108;-75
2021/05/23 09:31:18;;;;;;;3.63;2.45;;;;;;;20.22;74.50;97611.56;5013167;28;20120;-74
2021/05/23 09:33:50;;;;;;;2.80;2.10;;;;;;;19.45;77.11;97608.72;5013394;28;20493;-76
2021/05/23 09:36:18;;;;;;;2.38;2.17;;;;;;;19.11;76.75;97624.13;5027339;28;20039;-76
2021/05/23 09:38:55;;;;;;;4.85;2.92;;;;;;;18.94;78.35;97618.97;5012592;28;20553;-75
2021/05/23 09:41:23;;;;;;;3.42;2.40;;;;;;;18.40;79.15;97612.34;5003669;28;20025;-75
2021/05/23 09:43:48;;;;;;;6.70;3.90;;;;;;;18.25;78.60;97611.16;4993883;28;20022;-75
2021/05/23 09:46:14;;;;;;;4.60;2.90;;;;;;;19.02;77.22;97600.50;5020979;28;20100;-76
2021/05/23 09:48:48;;;;;;;3.47;2.05;;;;;;;20.35;71.53;97631.69;5016881;28;20060;-75
2021/05/23 09:51:14;;;;;;;3.92;2.03;;;;;;;20.19;71.28;97634.50;5011054;28;20030;-75
2021/05/23 09:53:42;;;;;;;5.82;2.72;;;;;;;;;;5011314;28;20022;-76
2021/05/23 09:56:14;;;;;;;4.63;4.10;;;;;;;20.20;72.47;97636.13;5011615;28;20399;-76
2021/05/23 09:58:43;;;;;;;2.95;1.90;;;;;;;19.98;74.79;97637.66;5012772;28;20038;-75
2021/05/23 10:01:31;;;;;;;5.55;2.20;;;;;;;20.62;71.98;97623.09;5018240;28;20490;-76
2021/05/23 10:03:58;;;;;;;7.47;2.25;;;;;;;20.52;72.12;97639.53;5000771;28;20133;-81
2021/05/23 10:06:35;;;;;;;4.68;2.30;;;;;;;19.76;76.00;97652.25;4991990;28;20042;-81
2021/05/23 10:09:02;;;;;;;3.63;2.28;;;;;;;18.93;78.04;97660.88;4974541;28;20469;-78
2021/05/23 10:11:27;;;;;;;3.53;2.80;;;;;;;18.47;83.30;97660.44;4992266;28;20027;-78
2021/05/23 10:13:53;;;;;;;3.30;2.65;;;;;;;18.28;86.30;97667.78;5031168;28;20371;-80
2021/05/23 10:16:19;;;;;;;6.95;3.10;;;;;;;18.12;87.66;97665.78;5031398;28;20064;-80
2021/05/23 10:18:46;;;;;;;5.70;3.00;;;;;;;18.32;88.32;97672.28;5031843;28;20061;-80
2021/05/23 10:21:12;;;;;;;4.63;3.22;;;;;;;18.46;88.10;97682.94;5025032;28;20022;-79
2021/05/23 10:23:52;;;;;;;6.70;3.35;;;;;;;18.22;87.81;97683.06;5011132;28;20033;-82
2021/05/23 10:26:21;;;;;;;8.60;5.30;;;;;;;18.10;89.54;97676.41;4994960;28;20393;-82
2021/05/23 10:28:50;;;;;;;11.20;5.55;;;;;;;17.93;90.36;97673.91;4991921;28;20038;-79
2021/05/23 10:31:30;;;;;;;11.70;7.20;;;;;;;17.83;91.43;97668.03;4991207;28;20088;-83
2021/05/23 10:33:56;;;;;;;12.45;4.00;;;;;;;18.24;89.96;97661.34;5009597;28;20030;-79
2021/05/23 10:36:34;;;;;;;5.97;3.38;;;;;;;19.24;88.33;97669.19;4992739;28;20026;-79
2021/05/23 10:39:03;;;;;;;11.20;3.75;;;;;;;19.94;85.52;97680.38;4991321;28;20033;-82
2021/05/23 10:41:32;;;;;;;5.68;3.17;;;;;;;20.33;82.02;97687.59;5010240;28;20386;-80
2021/05/23 10:44:04;;;;;;;11.15;3.30;;;;;;;20.11;80.13;97685.53;5009001;28;20034;-80
2021/05/23 10:46:30;;;;;;;8.43;3.63;;;;;;;19.84;80.08;97680.94;4992452;28;20447;-76
2021/05/23 10:49:01;;;;;;;7.28;3.03;;;;;;;19.71;81.54;97688.59;5010165;28;20049;-80
2021/05/23 10:51:28;;;;;;;5.97;2.72;;;;;;;19.32;82.41;97687.66;4992505;28;20029;-78
2021/05/23 10:53:54;;;;;;;6.32;2.40;;;;;;;19.96;83.94;97675.28;5009488;28;20105;-80
2021/05/23 10:56:25;;;;;;;5.75;3.65;;;;;;;20.38;79.15;97669.84;5010705;28;20080;-79
2021/05/23 10:59:01;;;;;;;4.90;3.05;;;;;;;20.78;79.14;97670.22;4988763;28;20089;-75
2021/05/23 11:01:50;;;;;;;7.68;2.90;;;;;;;21.31;77.49;97671.19;4984293;28;20065;-76
2021/05/23 11:04:17;;;;;;;4.32;2.88;;;;;;;21.13;74.18;97670.91;4990570;28;20156;-74
2021/05/23 11:06:45;;;;;;;9.10;3.05;;;;;;;20.84;76.51;97672.34;4972612;28;20053;-76
2021/05/23 11:09:13;;;;;;;3.05;2.40;;;;;;;20.87;72.90;97678.34;4990514;28;20019;-75
2021/05/23 11:11:39;;;;;;;5.40;2.70;;;;;;;20.54;73.48;97670.56;4990841;28;20030;-76
2021/05/23 11:14:15;;;;;;;4.20;2.67;;;;;;;20.24;75.45;97679.47;4975679;28;20052;-75
2021/05/23 11:16:50;;;;;;;;;;;;;;;19.97;76.64;97680.47;5010951;28;20092;-75
2021/05/23 11:19:17;;;;;;;6.78;3.17;;;;;;;19.58;78.82;97687.09;5010136;28;19948;-74
2021/05/23 11:21:43;;;;;;;8.15;3.30;;;;;;;19.40;79.47;97672.00;5010068;28;20108;-74
2021/05/23 11:24:10;;;;;;;4.00;2.53;;;;;;;19.00;80.62;97680.47;5010197;28;20549;-74
2021/05/23 11:26:37;;;;;;;5.30;2.92;;;;;;;18.98;80.25;97685.59;4993030;28;20025;-74
2021/05/23 11:29:04;;;;;;;5.80;2.40;;;;;;;19.68;79.10;97678.22;5010473;28;20360;-77